Terminal Aerodrome Forecast
Issued by NWS

Home | Current Version | Previous Version | Text Only | Print | Product List | Glossary On
Versions: 1 2 3 4 5 6 7 8 9 10 11 12 13 14 15 16 17 18 19 20 21 22 23 24 25 26 27 28 29
000
FTUS41 KBTV 231604 AAC
TAFRUT
TAF AMD
KRUT 231604Z 2316/2412 33008KT 2SM -RA BR OVC004
      TEMPO 2316/2320 3SM -RA BR OVC006
     FM240000 34009KT 6SM -RA BR OVC006
     FM240700 34005KT P6SM OVC005
      AMD LTD TO CLD VIS AND WIND=

USA.gov is the U.S. government's official web portal to all federal, state and local government web resources and services.